createdAt,value
2018-08-17T00:01:02.165Z,45.63
2018-08-17T00:03:32.176Z,46.53
2018-08-17T00:06:01.889Z,46.42
2018-08-17T00:08:31.627Z,46.08
2018-08-17T00:11:01.697Z,46.27
2018-08-17T00:13:31.329Z,46.49
2018-08-17T00:16:00.305Z,46.13
2018-08-17T00:18:30.017Z,45.96
2018-08-17T00:20:59.170Z,45.32
2018-08-17T00:23:28.815Z,46.13
2018-08-17T00:25:58.576Z,45.91
2018-08-17T00:28:29.260Z,45.77
2018-08-17T00:30:58.093Z,45.55
2018-08-17T00:33:29.760Z,45.99
2018-08-17T00:35:59.524Z,46.79
2018-08-17T00:38:30.185Z,46.64
2018-08-17T00:40:59.961Z,47.11
2018-08-17T00:43:29.407Z,46.51
2018-08-17T00:45:58.577Z,46.05
2018-08-17T00:48:28.128Z,46.75
2018-08-17T00:50:57.955Z,46.89
2018-08-17T00:53:27.317Z,47.10
2018-08-17T00:55:56.287Z,47.03
2018-08-17T00:58:26.803Z,47.10
2018-08-17T01:00:55.926Z,46.89
2018-08-17T01:03:25.694Z,46.62
2018-08-17T01:05:54.873Z,46.62
2018-08-17T01:08:24.551Z,46.69
2018-08-17T01:10:55.558Z,46.79
2018-08-17T01:13:25.334Z,46.87
2018-08-17T01:15:54.348Z,47.68
2018-08-17T01:18:23.321Z,47.77
2018-08-17T01:20:52.138Z,47.19
2018-08-17T01:23:21.676Z,47.44
2018-08-17T01:25:50.827Z,47.84
2018-08-17T01:28:20.781Z,47.12
2018-08-17T01:30:49.824Z,47.03
2018-08-17T01:33:20.669Z,46.95
2018-08-17T01:35:51.367Z,46.91
2018-08-17T01:38:22.057Z,47.55
2018-08-17T01:40:52.745Z,47.17
2018-08-17T01:43:22.096Z,47.32
2018-08-17T01:45:52.878Z,46.89
2018-08-17T01:48:22.840Z,46.55
2018-08-17T01:50:53.373Z,47.03
2018-08-17T01:53:22.418Z,46.94
2018-08-17T01:55:53.710Z,47.59
2018-08-17T01:58:24.213Z,47.73
2018-08-17T02:00:54.266Z,48.07
2018-08-17T02:03:23.176Z,47.81
2018-08-17T02:05:53.118Z,47.36
2018-08-17T02:08:23.245Z,46.94
2018-08-17T02:10:53.580Z,47.88
2018-08-17T02:13:22.679Z,47.81
2018-08-17T02:15:53.547Z,47.89
2018-08-17T02:18:25.309Z,47.41
2018-08-17T02:20:56.588Z,46.97
2018-08-17T02:23:25.293Z,47.17
2018-08-17T02:25:54.535Z,48.42
2018-08-17T02:28:24.893Z,48.11
2018-08-17T02:30:56.059Z,48.02
2018-08-17T02:33:26.605Z,47.65
2018-08-17T02:35:56.622Z,47.72
2018-08-17T02:38:27.075Z,47.98
2018-08-17T02:40:57.228Z,47.56
2018-08-17T02:43:26.330Z,47.96
2018-08-17T02:45:56.587Z,47.81
2018-08-17T02:48:25.292Z,47.41
2018-08-17T02:50:54.394Z,48.22
2018-08-17T02:53:24.084Z,49.08
2018-08-17T02:55:52.792Z,48.10
2018-08-17T02:58:22.158Z,48.94
2018-08-17T03:00:51.493Z,48.13
2018-08-17T03:03:22.250Z,49.06
2018-08-17T03:05:52.233Z,49.21
2018-08-17T03:08:23.893Z,49.08
2018-08-17T03:10:52.600Z,48.12
2018-08-17T03:13:22.896Z,49.24
2018-08-17T03:15:52.865Z,48.88
2018-08-17T03:18:22.880Z,49.81
2018-08-17T03:20:55.122Z,48.88
2018-08-17T03:23:26.039Z,49.84
2018-08-17T03:25:56.596Z,50.02
2018-08-17T03:28:26.885Z,50.33
2018-08-17T03:30:56.811Z,49.79
2018-08-17T03:33:27.981Z,49.28
2018-08-17T03:35:58.455Z,50.05
2018-08-17T03:38:29.281Z,49.84
2018-08-17T03:40:58.747Z,49.11
2018-08-17T03:43:27.882Z,49.39
2018-08-17T03:45:56.602Z,50.33
2018-08-17T03:48:25.838Z,50.13
2018-08-17T03:50:55.549Z,49.94
2018-08-17T03:53:24.544Z,50.50
2018-08-17T03:55:56.490Z,50.80
2018-08-17T03:58:26.990Z,50.24
2018-08-17T04:01:03.196Z,50.58
2018-08-17T04:03:32.896Z,51.06
2018-08-17T04:06:02.199Z,50.08
2018-08-17T04:08:33.144Z,50.77
2018-08-17T04:11:03.019Z,50.99
2018-08-17T04:13:33.497Z,51.13
2018-08-17T04:16:03.641Z,50.42
2018-08-17T04:18:32.547Z,50.25
2018-08-17T04:21:01.573Z,50.34
2018-08-17T04:23:30.512Z,50.89
2018-08-17T04:25:59.372Z,50.22
2018-08-17T04:28:28.319Z,51.33
2018-08-17T04:30:58.648Z,50.16
2018-08-17T04:33:28.704Z,50.83
2018-08-17T04:35:57.717Z,50.62
2018-08-17T04:38:27.338Z,51.46
2018-08-17T04:40:57.336Z,51.10
2018-08-17T04:43:26.856Z,51.15
2018-08-17T04:45:56.138Z,50.67
2018-08-17T04:48:25.338Z,51.39
2018-08-17T04:50:54.905Z,50.99
2018-08-17T04:53:23.963Z,51.13
2018-08-17T04:55:52.814Z,50.27
2018-08-17T04:58:22.805Z,51.07
2018-08-17T05:00:53.021Z,50.91
2018-08-17T05:03:22.855Z,51.02
2018-08-17T05:05:53.136Z,51.49
2018-08-17T05:08:23.242Z,50.68
2018-08-17T05:10:52.455Z,51.17
2018-08-17T05:13:21.385Z,50.74
2018-08-17T05:15:51.569Z,51.82
2018-08-17T05:18:22.584Z,51.26
2018-08-17T05:20:51.585Z,50.73
2018-08-17T05:23:21.196Z,51.34
2018-08-17T05:25:50.051Z,51.22
2018-08-17T05:28:20.429Z,51.20
2018-08-17T05:30:51.167Z,51.82
2018-08-17T05:33:21.685Z,52.57
2018-08-17T05:35:52.135Z,51.97
2018-08-17T05:38:22.546Z,51.65
2018-08-17T05:40:53.521Z,50.70
2018-08-17T05:43:23.001Z,50.92
2018-08-17T05:45:53.351Z,50.57
2018-08-17T05:48:22.621Z,50.92
2018-08-17T05:50:52.930Z,51.19
2018-08-17T05:53:21.622Z,51.84
2018-08-17T05:55:52.075Z,49.85
2018-08-17T05:58:20.809Z,50.01
2018-08-17T06:00:50.664Z,49.56
2018-08-17T06:03:20.461Z,50.23
2018-08-17T06:05:51.737Z,49.67
2018-08-17T06:08:22.121Z,50.26
2018-08-17T06:10:52.195Z,48.94
2018-08-17T06:13:21.717Z,48.46
2018-08-17T06:15:52.432Z,49.14
2018-08-17T06:18:21.841Z,47.86
2018-08-17T06:20:51.570Z,48.84
2018-08-17T06:23:22.565Z,49.20
2018-08-17T06:25:52.268Z,48.03
2018-08-17T06:28:22.103Z,47.99
2018-08-17T06:30:51.512Z,45.67
2018-08-17T06:33:20.436Z,45.04
2018-08-17T06:35:50.211Z,44.54
2018-08-17T06:38:20.506Z,44.38
2018-08-17T06:40:50.659Z,45.17
2018-08-17T06:43:19.417Z,42.41
2018-08-17T06:45:49.387Z,43.03
2018-08-17T06:48:19.284Z,41.79
2018-08-17T06:50:48.953Z,43.34
2018-08-17T06:53:19.031Z,43.89
2018-08-17T06:55:47.914Z,43.13
2018-08-17T06:58:17.525Z,44.87
2018-08-17T07:00:48.362Z,42.88
2018-08-17T07:03:17.993Z,42.81
2018-08-17T07:05:47.169Z,43.75
2018-08-17T07:08:16.733Z,42.87
2018-08-17T07:10:46.699Z,43.18
2018-08-17T07:13:16.483Z,44.06
2018-08-17T07:15:46.665Z,42.10
2018-08-17T07:18:16.538Z,41.76
2018-08-17T07:20:45.820Z,41.45
2018-08-17T07:23:14.885Z,41.84
2018-08-17T07:25:45.564Z,41.74
2018-08-17T07:28:15.179Z,42.31
2018-08-17T07:30:45.320Z,41.33
2018-08-17T07:33:15.339Z,40.58
2018-08-17T07:35:46.240Z,42.12
2018-08-17T07:38:16.692Z,43.17
2018-08-17T07:40:46.153Z,41.30
2018-08-17T07:43:15.788Z,41.68
2018-08-17T07:45:45.718Z,42.49
2018-08-17T07:48:16.206Z,42.80
2018-08-17T07:50:45.639Z,41.44
2018-08-17T07:53:15.691Z,40.37
2018-08-17T07:55:46.400Z,40.50
2018-08-17T07:58:17.249Z,41.27
2018-08-17T08:00:47.508Z,40.75
2018-08-17T08:03:18.298Z,41.16
2018-08-17T08:05:48.479Z,40.90
2018-08-17T08:08:20.270Z,39.76
2018-08-17T08:10:49.987Z,40.59
2018-08-17T08:13:19.209Z,39.07
2018-08-17T08:15:48.127Z,40.17
2018-08-17T08:18:17.179Z,38.99
2018-08-17T08:20:46.476Z,38.12
2018-08-17T08:23:30.738Z,38.34
2018-08-17T08:26:01.252Z,39.76
2018-08-17T08:28:30.300Z,38.18
2018-08-17T08:30:59.303Z,38.83
2018-08-17T08:33:29.046Z,39.25
2018-08-17T08:35:57.960Z,39.35
2018-08-17T08:38:27.953Z,35.76
2018-08-17T08:40:56.921Z,36.33
2018-08-17T08:43:27.229Z,35.53
2018-08-17T08:45:56.725Z,36.61
2018-08-17T08:48:26.562Z,37.33
2018-08-17T08:50:57.092Z,35.72
2018-08-17T08:53:26.006Z,36.82
2018-08-17T08:55:55.580Z,35.29
2018-08-17T08:58:26.814Z,34.25
2018-08-17T09:00:55.802Z,34.06
2018-08-17T09:03:24.621Z,33.95
2018-08-17T09:05:53.435Z,32.83
2018-08-17T09:08:22.325Z,33.05
2018-08-17T09:10:51.194Z,32.91
2018-08-17T09:13:20.873Z,31.68
2018-08-17T09:15:51.453Z,32.18
2018-08-17T09:18:20.169Z,30.80
2018-08-17T09:20:49.414Z,29.97
2018-08-17T09:23:19.899Z,31.01
2018-08-17T09:25:50.572Z,28.91
2018-08-17T09:28:20.309Z,30.13
2018-08-17T09:30:49.689Z,28.87
2018-08-17T09:33:18.939Z,29.74
2018-08-17T09:35:48.140Z,29.09
2018-08-17T09:38:16.850Z,27.70
2018-08-17T09:40:45.560Z,28.86
2018-08-17T09:43:14.233Z,29.47
2018-08-17T09:45:43.046Z,29.38
2018-08-17T09:48:12.291Z,30.08
2018-08-17T09:50:41.135Z,30.21
2018-08-17T09:53:09.862Z,30.00
2018-08-17T09:55:38.916Z,29.67
2018-08-17T09:58:09.219Z,28.55
2018-08-17T10:00:40.588Z,29.79
2018-08-17T10:03:14.494Z,29.68
2018-08-17T10:05:44.689Z,29.60
2018-08-17T10:08:19.707Z,31.00
2018-08-17T10:10:48.469Z,31.11
2018-08-17T10:13:17.118Z,32.36
2018-08-17T10:15:45.924Z,30.55
2018-08-17T10:18:15.516Z,32.28
2018-08-17T10:20:44.420Z,33.28
2018-08-17T10:23:18.352Z,31.75
2018-08-17T10:25:47.028Z,30.56
2018-08-17T10:28:16.094Z,30.80
2018-08-17T10:30:44.931Z,30.85
2018-08-17T10:33:13.876Z,30.77
2018-08-17T10:35:42.640Z,31.78
2018-08-17T10:38:11.643Z,31.58
2018-08-17T10:40:40.987Z,31.13
2018-08-17T10:43:11.283Z,30.24
2018-08-17T10:45:40.814Z,29.29
2018-08-17T10:48:10.492Z,29.81
2018-08-17T10:50:39.891Z,29.82
2018-08-17T10:53:09.878Z,30.05
2018-08-17T10:55:45.130Z,29.79
2018-08-17T10:58:16.259Z,29.23
2018-08-17T11:00:45.004Z,30.04
2018-08-17T11:03:13.875Z,30.44
2018-08-17T11:05:42.650Z,29.05
2018-08-17T11:08:11.461Z,28.92
2018-08-17T11:10:40.607Z,29.25
2018-08-17T11:13:10.414Z,30.23
2018-08-17T11:15:41.617Z,30.12
2018-08-17T11:18:10.680Z,29.42
2018-08-17T11:20:40.607Z,29.50
2018-08-17T11:23:09.412Z,29.42
2018-08-17T11:25:38.376Z,30.23
2018-08-17T11:28:07.508Z,29.91
2018-08-17T11:30:37.045Z,29.78
2018-08-17T11:33:06.474Z,29.40
2018-08-17T11:35:35.954Z,30.13
2018-08-17T11:38:05.286Z,30.25
2018-08-17T11:40:34.089Z,28.01
2018-08-17T11:43:02.905Z,27.72
2018-08-17T11:45:31.794Z,28.66
2018-08-17T11:48:00.623Z,27.76
2018-08-17T11:50:29.322Z,26.82
2018-08-17T11:52:58.920Z,26.29
2018-08-17T11:55:29.673Z,23.79
2018-08-17T11:57:58.429Z,23.50
2018-08-17T12:00:32.305Z,21.55
2018-08-17T12:03:01.832Z,22.26
2018-08-17T12:05:30.969Z,23.87
2018-08-17T12:08:00.415Z,24.83
2018-08-17T12:10:29.221Z,23.74
2018-08-17T12:13:03.519Z,24.29
2018-08-17T12:15:45.471Z,22.05
2018-08-17T12:18:14.994Z,19.75
2018-08-17T12:20:44.291Z,18.11
2018-08-17T12:23:13.443Z,16.37
2018-08-17T12:25:48.295Z,14.32
2018-08-17T12:28:17.932Z,16.81
2018-08-17T12:30:47.241Z,17.94
2018-08-17T12:33:16.013Z,18.98
2018-08-17T12:35:45.150Z,16.33
2018-08-17T12:38:15.453Z,15.47
2018-08-17T12:40:49.199Z,14.76
2018-08-17T12:43:20.790Z,15.30
2018-08-17T12:45:49.581Z,16.85
2018-08-17T12:48:18.598Z,16.87
2018-08-17T12:50:49.111Z,14.82
2018-08-17T12:53:18.170Z,14.20
2018-08-17T12:55:47.463Z,14.25
2018-08-17T12:58:16.465Z,13.13
2018-08-17T13:00:45.665Z,12.93
2018-08-17T13:03:16.014Z,14.24
2018-08-17T13:05:45.527Z,15.26
2018-08-17T13:08:15.169Z,14.28
2018-08-17T13:10:43.959Z,17.76
2018-08-17T13:13:12.885Z,13.55
2018-08-17T13:15:46.288Z,13.90
2018-08-17T13:18:20.421Z,14.93
2018-08-17T13:20:49.279Z,15.32
2018-08-17T13:23:18.165Z,14.31
2018-08-17T13:25:47.265Z,14.58
2018-08-17T13:28:16.468Z,12.67
2018-08-17T13:30:45.217Z,12.21
2018-08-17T13:33:13.871Z,13.14
2018-08-17T13:35:42.925Z,13.55
2018-08-17T13:38:11.667Z,14.32
2018-08-17T13:40:40.476Z,16.13
2018-08-17T13:43:09.304Z,20.31
2018-08-17T13:45:38.248Z,19.43
2018-08-17T13:48:07.273Z,19.88
2018-08-17T13:50:36.450Z,21.19
2018-08-17T13:53:05.325Z,21.35
2018-08-17T13:55:34.511Z,20.73
2018-08-17T13:58:03.438Z,20.25
2018-08-17T14:00:32.597Z,19.73
2018-08-17T14:03:01.692Z,21.62
2018-08-17T14:05:30.742Z,22.10
2018-08-17T14:07:59.757Z,22.77
2018-08-17T14:10:28.812Z,23.20
2018-08-17T14:12:57.640Z,23.99
2018-08-17T14:15:26.440Z,23.32
2018-08-17T14:17:56.160Z,25.89
2018-08-17T14:20:25.009Z,23.88
2018-08-17T14:22:53.975Z,25.81
2018-08-17T14:25:23.203Z,25.01
2018-08-17T14:27:52.063Z,24.51
2018-08-17T14:30:20.959Z,24.43
2018-08-17T14:32:50.182Z,25.45
2018-08-17T14:35:19.029Z,25.33
2018-08-17T14:37:47.995Z,26.20
2018-08-17T14:40:17.136Z,25.22
2018-08-17T14:42:46.768Z,26.04
2018-08-17T14:45:15.758Z,25.16
2018-08-17T14:47:45.267Z,26.52
2018-08-17T14:50:15.193Z,26.97
2018-08-17T14:52:44.120Z,26.02
2018-08-17T14:55:13.516Z,26.05
2018-08-17T14:57:42.379Z,26.11
2018-08-17T15:00:14.129Z,25.77
2018-08-17T15:02:43.130Z,26.27
2018-08-17T15:05:13.294Z,26.69
2018-08-17T15:07:42.345Z,26.81
2018-08-17T15:10:13.302Z,25.77
2018-08-17T15:12:42.916Z,25.72
2018-08-17T15:15:12.852Z,27.09
2018-08-17T15:17:42.306Z,26.91
2018-08-17T15:20:12.607Z,26.72
2018-08-17T15:22:41.902Z,27.37
2018-08-17T15:25:11.032Z,26.96
2018-08-17T15:27:39.862Z,27.89
2018-08-17T15:30:10.448Z,28.39
2018-08-17T15:32:45.824Z,28.11
2018-08-17T15:35:14.606Z,28.48
2018-08-17T15:37:43.451Z,30.25
2018-08-17T15:40:13.114Z,28.84
2018-08-17T15:42:42.830Z,30.72
2018-08-17T15:45:11.985Z,29.78
2018-08-17T15:47:40.943Z,31.43
2018-08-17T15:50:18.164Z,31.04
2018-08-17T15:52:47.306Z,30.83
2018-08-17T15:55:16.256Z,31.67
2018-08-17T15:57:45.470Z,32.69
2018-08-17T16:00:17.015Z,31.93
2018-08-17T16:02:46.273Z,31.97
2018-08-17T16:05:15.781Z,32.02
2018-08-17T16:07:44.644Z,31.86
2018-08-17T16:10:15.271Z,33.22
2018-08-17T16:12:44.548Z,31.99
2018-08-17T16:15:13.745Z,32.35
2018-08-17T16:17:44.804Z,33.83
2018-08-17T16:20:15.047Z,33.81
2018-08-17T16:22:44.577Z,33.44
2018-08-17T16:25:15.131Z,33.83
2018-08-17T16:27:43.945Z,34.47
2018-08-17T16:30:14.803Z,34.34
2018-08-17T16:32:43.845Z,34.55
2018-08-17T16:35:13.687Z,34.02
2018-08-17T16:37:46.129Z,35.15
2018-08-17T16:40:15.631Z,35.50
2018-08-17T16:42:45.939Z,35.50
2018-08-17T16:45:15.588Z,36.29
2018-08-17T16:47:44.357Z,36.81
2018-08-17T16:50:13.954Z,36.76
2018-08-17T16:52:43.296Z,36.01
2018-08-17T16:55:13.032Z,37.35
2018-08-17T16:57:41.823Z,38.37
2018-08-17T17:00:11.708Z,39.38
2018-08-17T17:02:41.374Z,40.08
2018-08-17T17:05:10.118Z,40.00
2018-08-17T17:07:38.872Z,40.51
2018-08-17T17:10:09.617Z,40.32
2018-08-17T17:12:38.452Z,40.55
2018-08-17T17:15:17.925Z,40.41
2018-08-17T17:17:56.909Z,42.16
2018-08-17T17:20:27.790Z,41.08
2018-08-17T17:22:56.511Z,42.11
2018-08-17T17:25:25.272Z,42.42
2018-08-17T17:27:54.017Z,42.24
2018-08-17T17:30:23.374Z,42.79
2018-08-17T17:32:52.100Z,42.71
2018-08-17T17:35:21.353Z,43.78
2018-08-17T17:37:51.087Z,43.87
2018-08-17T17:40:19.916Z,42.96
2018-08-17T17:42:48.808Z,43.01
2018-08-17T17:45:17.775Z,43.03
2018-08-17T17:47:47.352Z,43.96
2018-08-17T17:50:16.515Z,43.99
2018-08-17T17:52:45.247Z,44.58
2018-08-17T17:55:14.046Z,44.11
2018-08-17T17:57:43.359Z,44.31
2018-08-17T18:00:12.278Z,44.91
2018-08-17T18:02:41.100Z,45.24
2018-08-17T18:05:09.953Z,44.45
2018-08-17T18:07:44.824Z,45.01
2018-08-17T18:10:13.711Z,44.80
2018-08-17T18:12:42.647Z,44.12
2018-08-17T18:15:12.081Z,44.41
2018-08-17T18:17:41.304Z,45.00
2018-08-17T18:20:10.952Z,44.63
2018-08-17T18:22:39.806Z,44.98
2018-08-17T18:25:13.784Z,44.19
2018-08-17T18:27:42.569Z,45.10
2018-08-17T18:30:11.305Z,44.26
2018-08-17T18:32:40.829Z,44.09
2018-08-17T18:35:11.146Z,44.05
2018-08-17T18:37:39.911Z,43.79
2018-08-17T18:40:10.498Z,44.33
2018-08-17T18:42:39.705Z,44.15
2018-08-17T18:45:09.050Z,43.93
2018-08-17T18:47:38.350Z,43.55
2018-08-17T18:50:08.456Z,43.93
2018-08-17T18:52:52.377Z,44.17
2018-08-17T18:55:22.828Z,43.68
2018-08-17T18:57:52.009Z,44.12
2018-08-17T19:00:21.523Z,44.38
2018-08-17T19:02:51.688Z,44.18
2018-08-17T19:05:21.108Z,43.88
2018-08-17T19:07:49.771Z,43.84
2018-08-17T19:10:18.514Z,43.87
2018-08-17T19:12:47.547Z,44.25
2018-08-17T19:15:16.515Z,44.21
2018-08-17T19:17:45.306Z,43.79
2018-08-17T19:20:14.545Z,44.33
2018-08-17T19:22:45.143Z,43.97
2018-08-17T19:25:16.307Z,43.81
2018-08-17T19:27:45.991Z,44.64
2018-08-17T19:30:48.182Z,44.45
2018-08-17T19:33:18.925Z,45.64
2018-08-17T19:35:48.571Z,44.95
2018-08-17T19:38:19.250Z,45.42
2018-08-17T19:40:48.950Z,45.33
2018-08-17T19:43:18.724Z,45.06
2018-08-17T19:45:48.898Z,45.41
2018-08-17T19:48:18.650Z,45.32
2018-08-17T19:50:48.749Z,45.58
2018-08-17T19:53:18.398Z,45.30
2018-08-17T19:55:48.842Z,45.13
2018-08-17T19:58:18.585Z,44.95
2018-08-17T20:00:49.321Z,45.27
2018-08-17T20:03:23.337Z,45.32
2018-08-17T20:05:52.813Z,44.63
2018-08-17T20:08:23.005Z,45.45
2018-08-17T20:10:53.076Z,45.42
2018-08-17T20:13:22.691Z,45.13
2018-08-17T20:15:52.142Z,45.47
2018-08-17T20:18:22.489Z,45.66
2018-08-17T20:20:52.577Z,45.22
2018-08-17T20:23:23.030Z,45.02
2018-08-17T20:25:51.879Z,45.27
2018-08-17T20:28:20.553Z,46.12
2018-08-17T20:30:51.018Z,46.30
2018-08-17T20:33:30.686Z,45.27
2018-08-17T20:36:00.158Z,44.67
2018-08-17T20:38:29.048Z,44.38
2018-08-17T20:41:01.464Z,44.62
2018-08-17T20:43:31.952Z,45.20
2018-08-17T20:46:00.742Z,45.12
2018-08-17T20:48:30.138Z,45.04
2018-08-17T20:51:04.324Z,44.90
2018-08-17T20:53:35.628Z,44.88
2018-08-17T20:56:05.247Z,44.93
2018-08-17T20:58:36.304Z,45.44
2018-08-17T21:01:07.877Z,44.96
2018-08-17T21:03:37.149Z,44.98
2018-08-17T21:06:06.098Z,45.09
2018-08-17T21:08:35.535Z,44.82
2018-08-17T21:11:05.958Z,45.58
2018-08-17T21:13:36.153Z,46.07
2018-08-17T21:16:08.076Z,45.67
2018-08-17T21:18:42.378Z,45.99
2018-08-17T21:21:14.737Z,46.02
2018-08-17T21:23:45.933Z,45.43
2018-08-17T21:26:14.841Z,45.81
2018-08-17T21:28:46.244Z,47.05
2018-08-17T21:31:15.964Z,46.66
2018-08-17T21:33:46.397Z,46.89
2018-08-17T21:36:15.367Z,47.01
2018-08-17T21:38:44.168Z,47.13
2018-08-17T21:41:14.383Z,47.03
2018-08-17T21:43:45.210Z,47.59
2018-08-17T21:46:15.900Z,47.82
2018-08-17T21:48:45.412Z,48.53
2018-08-17T21:51:15.262Z,47.98
2018-08-17T21:53:45.101Z,48.02
2018-08-17T21:56:14.357Z,49.21
2018-08-17T21:58:43.489Z,48.51
2018-08-17T22:01:12.221Z,49.20
2018-08-17T22:03:41.048Z,48.38
2018-08-17T22:06:11.066Z,48.30
2018-08-17T22:08:41.177Z,49.06
2018-08-17T22:11:10.631Z,48.79
2018-08-17T22:13:40.973Z,49.20
2018-08-17T22:16:09.776Z,49.22
2018-08-17T22:18:38.867Z,49.81
2018-08-17T22:21:07.576Z,49.60
2018-08-17T22:23:36.436Z,50.64
2018-08-17T22:26:06.113Z,50.03
2018-08-17T22:28:34.863Z,49.90
2018-08-17T22:31:03.546Z,50.75
2018-08-17T22:33:32.334Z,50.79
2018-08-17T22:36:01.558Z,49.90
2018-08-17T22:38:34.563Z,50.78
2018-08-17T22:41:03.287Z,49.92
2018-08-17T22:43:32.100Z,51.08
2018-08-17T22:46:02.015Z,51.53
2018-08-17T22:48:30.944Z,51.49
2018-08-17T22:51:00.418Z,50.92
2018-08-17T22:53:30.326Z,51.55
2018-08-17T22:56:00.983Z,51.57
2018-08-17T22:58:34.692Z,52.72
2018-08-17T23:01:03.654Z,51.92
2018-08-17T23:03:33.029Z,51.38
2018-08-17T23:06:03.765Z,51.39
2018-08-17T23:08:33.512Z,51.49
2018-08-17T23:11:03.989Z,52.12
2018-08-17T23:13:34.307Z,52.17
2018-08-17T23:16:03.250Z,52.50
2018-08-17T23:18:32.294Z,53.05
2018-08-17T23:21:01.686Z,53.08
2018-08-17T23:23:30.799Z,52.91
2018-08-17T23:26:01.893Z,53.30
2018-08-17T23:28:32.617Z,52.96
2018-08-17T23:31:03.020Z,53.94
2018-08-17T23:33:32.446Z,53.18
2018-08-17T23:36:01.365Z,53.22
2018-08-17T23:38:32.200Z,54.13
2018-08-17T23:41:02.332Z,53.14
2018-08-17T23:43:31.844Z,53.23
2018-08-17T23:46:00.496Z,52.70
2018-08-17T23:48:29.360Z,52.81
2018-08-17T23:50:58.253Z,53.04
2018-08-17T23:53:28.009Z,53.66
2018-08-17T23:55:57.856Z,54.22
2018-08-17T23:58:26.610Z,54.75
